sensor_id;sensor_type;location;lat;lon;timestamp;temperature;humidity
51815;DHT22;37874;53.158;6.766;2023-04-26T00:01:56;18.20;51.50
51815;DHT22;37874;53.158;6.766;2023-04-26T00:04:22;18.20;51.50
51815;DHT22;37874;53.158;6.766;2023-04-26T00:06:48;18.20;51.30
51815;DHT22;37874;53.158;6.766;2023-04-26T00:09:14;18.20;51.50
51815;DHT22;37874;53.158;6.766;2023-04-26T00:11:40;18.20;51.30
51815;DHT22;37874;53.158;6.766;2023-04-26T00:14:06;18.20;51.40
51815;DHT22;37874;53.158;6.766;2023-04-26T00:16:31;18.20;51.70
51815;DHT22;37874;53.158;6.766;2023-04-26T00:18:57;18.10;51.60
51815;DHT22;37874;53.158;6.766;2023-04-26T00:21:22;18.10;51.50
51815;DHT22;37874;53.158;6.766;2023-04-26T00:23:48;18.10;51.30
51815;DHT22;37874;53.158;6.766;2023-04-26T00:26:14;18.10;51.50
51815;DHT22;37874;53.158;6.766;2023-04-26T00:28:39;18.10;51.60
51815;DHT22;37874;53.158;6.766;2023-04-26T00:31:05;18.10;51.60
51815;DHT22;37874;53.158;6.766;2023-04-26T00:33:31;18.10;51.40
51815;DHT22;37874;53.158;6.766;2023-04-26T00:35:57;18.30;52.30
51815;DHT22;37874;53.158;6.766;2023-04-26T00:38:22;18.10;51.80
51815;DHT22;37874;53.158;6.766;2023-04-26T00:40:48;18.10;51.50
51815;DHT22;37874;53.158;6.766;2023-04-26T00:43:14;18.10;51.50
51815;DHT22;37874;53.158;6.766;2023-04-26T00:45:40;18.00;51.60
51815;DHT22;37874;53.158;6.766;2023-04-26T00:48:06;18.10;51.70
51815;DHT22;37874;53.158;6.766;2023-04-26T00:50:32;18.00;51.90
51815;DHT22;37874;53.158;6.766;2023-04-26T00:52:58;18.10;52.00
51815;DHT22;37874;53.158;6.766;2023-04-26T00:55:24;18.10;52.00
51815;DHT22;37874;53.158;6.766;2023-04-26T00:57:52;18.10;52.20
51815;DHT22;37874;53.158;6.766;2023-04-26T01:00:18;18.10;52.00
51815;DHT22;37874;53.158;6.766;2023-04-26T01:02:44;18.00;52.00
51815;DHT22;37874;53.158;6.766;2023-04-26T01:05:10;18.10;52.20
51815;DHT22;37874;53.158;6.766;2023-04-26T01:07:36;18.00;51.90
51815;DHT22;37874;53.158;6.766;2023-04-26T01:10:03;18.00;52.00
51815;DHT22;37874;53.158;6.766;2023-04-26T01:12:30;18.00;52.00
51815;DHT22;37874;53.158;6.766;2023-04-26T01:14:58;18.00;52.00
51815;DHT22;37874;53.158;6.766;2023-04-26T01:17:23;18.10;52.00
51815;DHT22;37874;53.158;6.766;2023-04-26T01:19:50;18.00;52.00
51815;DHT22;37874;53.158;6.766;2023-04-26T01:22:17;18.00;52.00
51815;DHT22;37874;53.158;6.766;2023-04-26T01:24:44;18.00;51.70
51815;DHT22;37874;53.158;6.766;2023-04-26T01:27:11;18.00;51.60
51815;DHT22;37874;53.158;6.766;2023-04-26T01:29:37;18.00;51.70
51815;DHT22;37874;53.158;6.766;2023-04-26T01:32:03;18.00;51.90
51815;DHT22;37874;53.158;6.766;2023-04-26T01:34:29;18.00;51.70
51815;DHT22;37874;53.158;6.766;2023-04-26T01:36:55;17.90;51.90
51815;DHT22;37874;53.158;6.766;2023-04-26T01:39:20;18.00;51.60
51815;DHT22;37874;53.158;6.766;2023-04-26T01:41:46;17.90;51.60
51815;DHT22;37874;53.158;6.766;2023-04-26T01:44:11;17.90;51.40
51815;DHT22;37874;53.158;6.766;2023-04-26T01:46:37;18.10;51.80
51815;DHT22;37874;53.158;6.766;2023-04-26T01:49:02;17.90;51.60
51815;DHT22;37874;53.158;6.766;2023-04-26T01:51:28;17.90;51.70
51815;DHT22;37874;53.158;6.766;2023-04-26T01:53:54;17.90;51.80
51815;DHT22;37874;53.158;6.766;2023-04-26T01:56:22;17.90;51.90
51815;DHT22;37874;53.158;6.766;2023-04-26T01:58:47;17.90;52.00
51815;DHT22;37874;53.158;6.766;2023-04-26T02:01:13;17.90;52.00
51815;DHT22;37874;53.158;6.766;2023-04-26T02:03:39;17.90;51.80
51815;DHT22;37874;53.158;6.766;2023-04-26T02:06:04;17.90;51.80
51815;DHT22;37874;53.158;6.766;2023-04-26T02:08:30;17.90;51.60
51815;DHT22;37874;53.158;6.766;2023-04-26T02:10:56;17.90;51.60
51815;DHT22;37874;53.158;6.766;2023-04-26T02:13:21;17.90;51.70
51815;DHT22;37874;53.158;6.766;2023-04-26T02:15:48;17.90;51.80
51815;DHT22;37874;53.158;6.766;2023-04-26T02:18:14;17.80;51.80
51815;DHT22;37874;53.158;6.766;2023-04-26T02:20:40;17.90;51.80
51815;DHT22;37874;53.158;6.766;2023-04-26T02:23:10;17.90;52.00
51815;DHT22;37874;53.158;6.766;2023-04-26T02:25:36;17.80;52.10
51815;DHT22;37874;53.158;6.766;2023-04-26T02:28:05;17.90;52.00
51815;DHT22;37874;53.158;6.766;2023-04-26T02:30:31;17.80;52.00
51815;DHT22;37874;53.158;6.766;2023-04-26T02:32:57;17.80;51.80
51815;DHT22;37874;53.158;6.766;2023-04-26T02:35:23;17.80;52.60
51815;DHT22;37874;53.158;6.766;2023-04-26T02:37:49;17.80;52.00
51815;DHT22;37874;53.158;6.766;2023-04-26T02:40:17;17.80;51.90
51815;DHT22;37874;53.158;6.766;2023-04-26T02:42:43;17.80;52.00
51815;DHT22;37874;53.158;6.766;2023-04-26T02:45:08;17.80;52.10
51815;DHT22;37874;53.158;6.766;2023-04-26T02:47:34;17.80;52.10
51815;DHT22;37874;53.158;6.766;2023-04-26T02:50:06;17.80;52.10
51815;DHT22;37874;53.158;6.766;2023-04-26T02:52:35;17.80;52.10
51815;DHT22;37874;53.158;6.766;2023-04-26T02:55:04;17.80;51.80
51815;DHT22;37874;53.158;6.766;2023-04-26T02:57:33;17.80;52.00
51815;DHT22;37874;53.158;6.766;2023-04-26T02:59:59;17.70;51.70
51815;DHT22;37874;53.158;6.766;2023-04-26T03:02:25;17.70;51.70
51815;DHT22;37874;53.158;6.766;2023-04-26T03:04:51;17.70;51.60
51815;DHT22;37874;53.158;6.766;2023-04-26T03:07:16;17.70;51.50
51815;DHT22;37874;53.158;6.766;2023-04-26T03:09:42;17.70;51.90
51815;DHT22;37874;53.158;6.766;2023-04-26T03:12:08;17.70;51.80
51815;DHT22;37874;53.158;6.766;2023-04-26T03:14:34;17.60;52.10
51815;DHT22;37874;53.158;6.766;2023-04-26T03:17:00;17.60;51.70
51815;DHT22;37874;53.158;6.766;2023-04-26T03:19:26;17.60;52.00
51815;DHT22;37874;53.158;6.766;2023-04-26T03:21:55;17.60;52.00
51815;DHT22;37874;53.158;6.766;2023-04-26T03:24:21;17.60;52.00
51815;DHT22;37874;53.158;6.766;2023-04-26T03:26:47;17.60;52.00
51815;DHT22;37874;53.158;6.766;2023-04-26T03:29:12;17.60;52.20
51815;DHT22;37874;53.158;6.766;2023-04-26T03:31:38;17.60;52.10
51815;DHT22;37874;53.158;6.766;2023-04-26T03:34:04;17.80;52.30
51815;DHT22;37874;53.158;6.766;2023-04-26T03:36:30;17.60;52.50
51815;DHT22;37874;53.158;6.766;2023-04-26T03:38:56;17.60;51.90
51815;DHT22;37874;53.158;6.766;2023-04-26T03:41:22;17.60;51.90
51815;DHT22;37874;53.158;6.766;2023-04-26T03:43:48;17.50;52.00
51815;DHT22;37874;53.158;6.766;2023-04-26T03:46:13;17.50;52.00
51815;DHT22;37874;53.158;6.766;2023-04-26T03:48:39;17.50;51.60
51815;DHT22;37874;53.158;6.766;2023-04-26T03:51:05;17.50;51.90
51815;DHT22;37874;53.158;6.766;2023-04-26T03:53:31;17.60;52.20
51815;DHT22;37874;53.158;6.766;2023-04-26T03:55:56;17.50;52.30
51815;DHT22;37874;53.158;6.766;2023-04-26T03:58:25;17.70;52.40
51815;DHT22;37874;53.158;6.766;2023-04-26T04:00:51;17.60;52.40
51815;DHT22;37874;53.158;6.766;2023-04-26T04:03:16;17.60;52.40
51815;DHT22;37874;53.158;6.766;2023-04-26T04:05:42;17.60;52.30
51815;DHT22;37874;53.158;6.766;2023-04-26T04:08:08;17.60;52.40
51815;DHT22;37874;53.158;6.766;2023-04-26T04:10:33;17.60;52.30
51815;DHT22;37874;53.158;6.766;2023-04-26T04:13:00;17.50;52.20
51815;DHT22;37874;53.158;6.766;2023-04-26T04:15:26;17.60;52.40
51815;DHT22;37874;53.158;6.766;2023-04-26T04:17:51;17.60;52.40
51815;DHT22;37874;53.158;6.766;2023-04-26T04:20:17;17.60;52.40
51815;DHT22;37874;53.158;6.766;2023-04-26T04:22:43;17.60;52.30
51815;DHT22;37874;53.158;6.766;2023-04-26T04:25:09;17.60;52.20
51815;DHT22;37874;53.158;6.766;2023-04-26T04:27:38;17.50;52.10
51815;DHT22;37874;53.158;6.766;2023-04-26T04:30:07;17.60;52.30
51815;DHT22;37874;53.158;6.766;2023-04-26T04:32:33;17.50;52.20
51815;DHT22;37874;53.158;6.766;2023-04-26T04:34:59;17.50;51.70
51815;DHT22;37874;53.158;6.766;2023-04-26T04:37:26;17.50;51.20
51815;DHT22;37874;53.158;6.766;2023-04-26T04:39:52;17.50;50.50
51815;DHT22;37874;53.158;6.766;2023-04-26T04:42:17;17.40;50.30
51815;DHT22;37874;53.158;6.766;2023-04-26T04:44:43;17.40;50.30
51815;DHT22;37874;53.158;6.766;2023-04-26T04:47:10;17.40;50.70
51815;DHT22;37874;53.158;6.766;2023-04-26T04:49:37;17.30;51.00
51815;DHT22;37874;53.158;6.766;2023-04-26T04:52:03;17.30;51.00
51815;DHT22;37874;53.158;6.766;2023-04-26T04:54:29;17.30;51.00
51815;DHT22;37874;53.158;6.766;2023-04-26T04:56:54;17.20;51.20
51815;DHT22;37874;53.158;6.766;2023-04-26T04:59:22;17.20;51.30
51815;DHT22;37874;53.158;6.766;2023-04-26T05:01:48;17.30;51.20
51815;DHT22;37874;53.158;6.766;2023-04-26T05:04:14;17.30;51.00
51815;DHT22;37874;53.158;6.766;2023-04-26T05:06:40;17.30;51.40
51815;DHT22;37874;53.158;6.766;2023-04-26T05:09:06;17.30;51.00
51815;DHT22;37874;53.158;6.766;2023-04-26T05:11:32;17.30;51.20
51815;DHT22;37874;53.158;6.766;2023-04-26T05:13:58;17.40;51.50
51815;DHT22;37874;53.158;6.766;2023-04-26T05:16:24;17.30;51.70
51815;DHT22;37874;53.158;6.766;2023-04-26T05:18:49;17.40;51.60
51815;DHT22;37874;53.158;6.766;2023-04-26T05:21:15;16.80;51.30
51815;DHT22;37874;53.158;6.766;2023-04-26T05:23:41;17.30;51.50
51815;DHT22;37874;53.158;6.766;2023-04-26T05:26:09;17.30;51.70
51815;DHT22;37874;53.158;6.766;2023-04-26T05:28:35;17.40;51.10
51815;DHT22;37874;53.158;6.766;2023-04-26T05:31:00;17.30;51.00
51815;DHT22;37874;53.158;6.766;2023-04-26T05:33:26;17.30;51.00
51815;DHT22;37874;53.158;6.766;2023-04-26T05:35:53;17.40;51.30
51815;DHT22;37874;53.158;6.766;2023-04-26T05:38:19;17.30;51.40
51815;DHT22;37874;53.158;6.766;2023-04-26T05:40:46;17.40;51.30
51815;DHT22;37874;53.158;6.766;2023-04-26T05:43:13;17.40;51.30
51815;DHT22;37874;53.158;6.766;2023-04-26T05:45:38;17.30;51.10
51815;DHT22;37874;53.158;6.766;2023-04-26T05:48:04;17.40;51.00
51815;DHT22;37874;53.158;6.766;2023-04-26T05:50:30;17.40;51.00
51815;DHT22;37874;53.158;6.766;2023-04-26T05:52:56;17.30;51.20
51815;DHT22;37874;53.158;6.766;2023-04-26T05:55:22;17.30;51.50
51815;DHT22;37874;53.158;6.766;2023-04-26T05:57:48;17.30;51.30
51815;DHT22;37874;53.158;6.766;2023-04-26T06:00:14;17.30;51.40
51815;DHT22;37874;53.158;6.766;2023-04-26T06:02:40;17.30;51.50
51815;DHT22;37874;53.158;6.766;2023-04-26T06:05:06;17.30;51.40
51815;DHT22;37874;53.158;6.766;2023-04-26T06:07:33;17.30;51.20
51815;DHT22;37874;53.158;6.766;2023-04-26T06:10:00;17.30;51.00
51815;DHT22;37874;53.158;6.766;2023-04-26T06:12:26;17.40;51.30
51815;DHT22;37874;53.158;6.766;2023-04-26T06:14:52;17.30;50.90
51815;DHT22;37874;53.158;6.766;2023-04-26T06:17:17;17.30;50.80
51815;DHT22;37874;53.158;6.766;2023-04-26T06:19:43;17.30;50.60
51815;DHT22;37874;53.158;6.766;2023-04-26T06:22:08;17.30;50.50
51815;DHT22;37874;53.158;6.766;2023-04-26T06:24:34;17.30;50.40
51815;DHT22;37874;53.158;6.766;2023-04-26T06:26:59;17.20;50.50
51815;DHT22;37874;53.158;6.766;2023-04-26T06:29:25;17.30;50.70
51815;DHT22;37874;53.158;6.766;2023-04-26T06:31:50;17.30;50.60
51815;DHT22;37874;53.158;6.766;2023-04-26T06:34:16;17.30;50.90
51815;DHT22;37874;53.158;6.766;2023-04-26T06:36:42;17.40;51.10
51815;DHT22;37874;53.158;6.766;2023-04-26T06:39:07;17.40;50.80
51815;DHT22;37874;53.158;6.766;2023-04-26T06:41:33;17.40;51.00
51815;DHT22;37874;53.158;6.766;2023-04-26T06:43:58;17.40;51.00
51815;DHT22;37874;53.158;6.766;2023-04-26T06:46:24;17.40;51.00
51815;DHT22;37874;53.158;6.766;2023-04-26T06:48:52;17.50;51.50
51815;DHT22;37874;53.158;6.766;2023-04-26T06:51:18;17.40;51.00
51815;DHT22;37874;53.158;6.766;2023-04-26T06:53:44;17.40;51.00
51815;DHT22;37874;53.158;6.766;2023-04-26T06:56:09;17.40;50.90
51815;DHT22;37874;53.158;6.766;2023-04-26T06:58:35;17.40;50.60
51815;DHT22;37874;53.158;6.766;2023-04-26T07:01:01;17.40;50.70
51815;DHT22;37874;53.158;6.766;2023-04-26T07:03:26;17.40;50.60
51815;DHT22;37874;53.158;6.766;2023-04-26T07:05:54;17.40;51.20
51815;DHT22;37874;53.158;6.766;2023-04-26T07:08:19;17.40;50.50
51815;DHT22;37874;53.158;6.766;2023-04-26T07:10:45;17.40;50.10
51815;DHT22;37874;53.158;6.766;2023-04-26T07:13:11;17.40;50.50
51815;DHT22;37874;53.158;6.766;2023-04-26T07:15:36;17.40;50.40
51815;DHT22;37874;53.158;6.766;2023-04-26T07:18:02;17.40;49.80
51815;DHT22;37874;53.158;6.766;2023-04-26T07:20:27;17.50;50.10
51815;DHT22;37874;53.158;6.766;2023-04-26T07:22:53;17.40;49.90
51815;DHT22;37874;53.158;6.766;2023-04-26T07:25:18;17.50;50.00
51815;DHT22;37874;53.158;6.766;2023-04-26T07:27:44;17.50;50.00
51815;DHT22;37874;53.158;6.766;2023-04-26T07:30:10;17.30;49.70
51815;DHT22;37874;53.158;6.766;2023-04-26T07:32:36;17.50;49.90
51815;DHT22;37874;53.158;6.766;2023-04-26T07:35:04;17.60;49.90
51815;DHT22;37874;53.158;6.766;2023-04-26T07:37:30;17.60;49.30
51815;DHT22;37874;53.158;6.766;2023-04-26T07:39:55;17.60;49.20
51815;DHT22;37874;53.158;6.766;2023-04-26T07:42:21;17.60;49.50
51815;DHT22;37874;53.158;6.766;2023-04-26T07:44:47;17.60;48.70
51815;DHT22;37874;53.158;6.766;2023-04-26T07:47:13;17.60;49.10
51815;DHT22;37874;53.158;6.766;2023-04-26T07:49:39;17.50;48.90
51815;DHT22;37874;53.158;6.766;2023-04-26T07:52:07;17.60;49.30
51815;DHT22;37874;53.158;6.766;2023-04-26T07:54:33;17.60;49.50
51815;DHT22;37874;53.158;6.766;2023-04-26T09:58:09;17.70;49.30
51815;DHT22;37874;53.158;6.766;2023-04-26T10:00:37;17.70;49.50
51815;DHT22;37874;53.158;6.766;2023-04-26T10:03:05;17.70;49.40
51815;DHT22;37874;53.158;6.766;2023-04-26T10:05:32;17.70;49.40
51815;DHT22;37874;53.158;6.766;2023-04-26T10:07:58;17.70;49.60
51815;DHT22;37874;53.158;6.766;2023-04-26T10:10:23;17.60;49.60
51815;DHT22;37874;53.158;6.766;2023-04-26T10:12:49;17.70;49.60
51815;DHT22;37874;53.158;6.766;2023-04-26T10:15:14;17.70;49.70
51815;DHT22;37874;53.158;6.766;2023-04-26T10:17:40;17.70;49.50
51815;DHT22;37874;53.158;6.766;2023-04-26T10:20:10;17.70;49.70
51815;DHT22;37874;53.158;6.766;2023-04-26T10:22:42;17.70;49.90
51815;DHT22;37874;53.158;6.766;2023-04-26T10:25:09;17.80;49.70
51815;DHT22;37874;53.158;6.766;2023-04-26T10:30:16;17.80;49.60
51815;DHT22;37874;53.158;6.766;2023-04-26T10:35:21;17.80;49.10
51815;DHT22;37874;53.158;6.766;2023-04-26T10:45:43;17.90;48.70
51815;DHT22;37874;53.158;6.766;2023-04-26T10:48:29;17.90;48.90
51815;DHT22;37874;53.158;6.766;2023-04-26T10:53:30;17.90;48.60
51815;DHT22;37874;53.158;6.766;2023-04-26T10:55:57;17.90;48.70
51815;DHT22;37874;53.158;6.766;2023-04-26T10:58:33;17.90;48.70
51815;DHT22;37874;53.158;6.766;2023-04-26T11:06:22;17.90;48.90
51815;DHT22;37874;53.158;6.766;2023-04-26T11:08:49;17.90;48.90
51815;DHT22;37874;53.158;6.766;2023-04-26T11:11:15;17.90;48.90
51815;DHT22;37874;53.158;6.766;2023-04-26T11:13:42;17.90;48.50
51815;DHT22;37874;53.158;6.766;2023-04-26T11:16:15;17.90;48.80
51815;DHT22;37874;53.158;6.766;2023-04-26T11:18:43;17.80;48.40
51815;DHT22;37874;53.158;6.766;2023-04-26T11:21:10;17.80;48.60
51815;DHT22;37874;53.158;6.766;2023-04-26T11:23:37;17.70;48.60
51815;DHT22;37874;53.158;6.766;2023-04-26T11:26:04;17.70;48.50
51815;DHT22;37874;53.158;6.766;2023-04-26T11:28:31;17.70;49.00
51815;DHT22;37874;53.158;6.766;2023-04-26T11:30:58;17.60;49.50
51815;DHT22;37874;53.158;6.766;2023-04-26T11:33:23;17.70;49.70
51815;DHT22;37874;53.158;6.766;2023-04-26T11:35:54;17.70;49.90
51815;DHT22;37874;53.158;6.766;2023-04-26T11:38:27;17.70;50.30
51815;DHT22;37874;53.158;6.766;2023-04-26T11:41:00;18.10;50.40
51815;DHT22;37874;53.158;6.766;2023-04-26T11:43:36;17.70;50.40
51815;DHT22;37874;53.158;6.766;2023-04-26T11:46:03;17.70;50.60
51815;DHT22;37874;53.158;6.766;2023-04-26T11:48:30;17.70;50.80
51815;DHT22;37874;53.158;6.766;2023-04-26T11:50:56;17.70;50.90
51815;DHT22;37874;53.158;6.766;2023-04-26T11:53:23;17.60;51.00
51815;DHT22;37874;53.158;6.766;2023-04-26T11:55:49;17.70;51.00
51815;DHT22;37874;53.158;6.766;2023-04-26T11:58:15;17.70;51.00
51815;DHT22;37874;53.158;6.766;2023-04-26T12:01:00;17.90;51.10
51815;DHT22;37874;53.158;6.766;2023-04-26T12:03:33;17.80;51.00
51815;DHT22;37874;53.158;6.766;2023-04-26T12:06:05;17.80;50.90
51815;DHT22;37874;53.158;6.766;2023-04-26T12:08:31;17.80;50.90
51815;DHT22;37874;53.158;6.766;2023-04-26T12:11:01;17.90;51.00
51815;DHT22;37874;53.158;6.766;2023-04-26T12:13:28;17.90;50.90
51815;DHT22;37874;53.158;6.766;2023-04-26T12:15:54;17.90;50.80
51815;DHT22;37874;53.158;6.766;2023-04-26T12:18:19;18.00;50.80
51815;DHT22;37874;53.158;6.766;2023-04-26T12:20:45;18.00;50.80
51815;DHT22;37874;53.158;6.766;2023-04-26T12:23:15;18.00;50.80
51815;DHT22;37874;53.158;6.766;2023-04-26T12:25:51;18.00;50.70
51815;DHT22;37874;53.158;6.766;2023-04-26T12:28:17;18.00;50.80
51815;DHT22;37874;53.158;6.766;2023-04-26T12:30:43;18.00;50.80
51815;DHT22;37874;53.158;6.766;2023-04-26T12:33:09;18.00;50.80
51815;DHT22;37874;53.158;6.766;2023-04-26T12:35:35;18.00;50.80
51815;DHT22;37874;53.158;6.766;2023-04-26T12:38:01;18.00;50.90
51815;DHT22;37874;53.158;6.766;2023-04-26T12:40:27;18.00;50.90
51815;DHT22;37874;53.158;6.766;2023-04-26T12:42:54;18.00;51.00
51815;DHT22;37874;53.158;6.766;2023-04-26T12:45:22;18.00;51.00
51815;DHT22;37874;53.158;6.766;2023-04-26T12:47:48;18.10;51.00
51815;DHT22;37874;53.158;6.766;2023-04-26T12:50:14;18.10;51.00
51815;DHT22;37874;53.158;6.766;2023-04-26T12:52:42;18.10;51.00
51815;DHT22;37874;53.158;6.766;2023-04-26T12:55:11;18.10;51.00
51815;DHT22;37874;53.158;6.766;2023-04-26T12:57:39;18.10;51.00
51815;DHT22;37874;53.158;6.766;2023-04-26T13:00:06;18.10;51.10
51815;DHT22;37874;53.158;6.766;2023-04-26T13:02:34;18.10;50.90
51815;DHT22;37874;53.158;6.766;2023-04-26T13:05:00;18.20;50.80
51815;DHT22;37874;53.158;6.766;2023-04-26T13:07:33;18.20;50.90
51815;DHT22;37874;53.158;6.766;2023-04-26T13:09:59;18.10;50.80
51815;DHT22;37874;53.158;6.766;2023-04-26T13:12:26;18.10;51.00
51815;DHT22;37874;53.158;6.766;2023-04-26T13:14:52;18.00;51.00
51815;DHT22;37874;53.158;6.766;2023-04-26T13:17:18;18.00;51.10
51815;DHT22;37874;53.158;6.766;2023-04-26T13:19:43;18.00;51.10
51815;DHT22;37874;53.158;6.766;2023-04-26T13:22:12;18.00;51.20
51815;DHT22;37874;53.158;6.766;2023-04-26T13:24:38;17.90;51.00
51815;DHT22;37874;53.158;6.766;2023-04-26T13:27:04;17.90;51.20
51815;DHT22;37874;53.158;6.766;2023-04-26T13:29:30;17.90;51.10
51815;DHT22;37874;53.158;6.766;2023-04-26T13:32:00;17.90;51.10
51815;DHT22;37874;53.158;6.766;2023-04-26T13:34:26;17.90;51.20
51815;DHT22;37874;53.158;6.766;2023-04-26T13:36:53;17.90;51.20
51815;DHT22;37874;53.158;6.766;2023-04-26T13:39:21;17.90;51.20
51815;DHT22;37874;53.158;6.766;2023-04-26T13:41:48;17.90;51.30
51815;DHT22;37874;53.158;6.766;2023-04-26T13:44:14;17.90;51.10
51815;DHT22;37874;53.158;6.766;2023-04-26T13:46:40;17.90;51.20
51815;DHT22;37874;53.158;6.766;2023-04-26T13:49:06;17.90;51.10
51815;DHT22;37874;53.158;6.766;2023-04-26T13:51:34;17.90;51.00
51815;DHT22;37874;53.158;6.766;2023-04-26T13:54:00;17.90;50.90
51815;DHT22;37874;53.158;6.766;2023-04-26T13:56:26;17.80;51.00
51815;DHT22;37874;53.158;6.766;2023-04-26T13:58:55;17.90;50.90
51815;DHT22;37874;53.158;6.766;2023-04-26T14:01:21;17.90;50.90
51815;DHT22;37874;53.158;6.766;2023-04-26T14:03:47;17.90;51.00
51815;DHT22;37874;53.158;6.766;2023-04-26T14:06:12;17.90;50.90
51815;DHT22;37874;53.158;6.766;2023-04-26T14:08:38;17.90;50.80
51815;DHT22;37874;53.158;6.766;2023-04-26T14:11:04;17.80;50.70
51815;DHT22;37874;53.158;6.766;2023-04-26T14:13:29;17.90;51.00
51815;DHT22;37874;53.158;6.766;2023-04-26T14:15:55;17.80;51.00
51815;DHT22;37874;53.158;6.766;2023-04-26T14:18:20;17.80;50.90
51815;DHT22;37874;53.158;6.766;2023-04-26T14:20:46;17.80;51.00
51815;DHT22;37874;53.158;6.766;2023-04-26T14:23:12;17.50;50.70
51815;DHT22;37874;53.158;6.766;2023-04-26T14:25:38;17.90;51.00
51815;DHT22;37874;53.158;6.766;2023-04-26T14:28:04;17.80;50.90
51815;DHT22;37874;53.158;6.766;2023-04-26T14:30:31;17.90;51.10
51815;DHT22;37874;53.158;6.766;2023-04-26T14:32:56;17.80;51.10
51815;DHT22;37874;53.158;6.766;2023-04-26T14:35:22;17.80;51.10
51815;DHT22;37874;53.158;6.766;2023-04-26T14:37:47;17.90;51.20
51815;DHT22;37874;53.158;6.766;2023-04-26T14:40:13;17.80;51.20
51815;DHT22;37874;53.158;6.766;2023-04-26T14:42:38;17.80;51.30
51815;DHT22;37874;53.158;6.766;2023-04-26T14:45:10;17.80;50.80
51815;DHT22;37874;53.158;6.766;2023-04-26T14:47:37;17.80;50.90
51815;DHT22;37874;53.158;6.766;2023-04-26T14:50:02;17.80;50.80
51815;DHT22;37874;53.158;6.766;2023-04-26T14:52:29;17.80;50.40
51815;DHT22;37874;53.158;6.766;2023-04-26T14:54:55;17.80;50.60
51815;DHT22;37874;53.158;6.766;2023-04-26T14:57:21;17.80;50.60
51815;DHT22;37874;53.158;6.766;2023-04-26T14:59:47;17.90;50.80
51815;DHT22;37874;53.158;6.766;2023-04-26T15:02:13;17.90;50.80
51815;DHT22;37874;53.158;6.766;2023-04-26T15:04:38;17.80;50.80
51815;DHT22;37874;53.158;6.766;2023-04-26T15:07:04;17.90;50.70
51815;DHT22;37874;53.158;6.766;2023-04-26T15:09:29;17.90;50.90
51815;DHT22;37874;53.158;6.766;2023-04-26T15:11:55;17.70;50.70
51815;DHT22;37874;53.158;6.766;2023-04-26T15:14:21;17.90;50.80
51815;DHT22;37874;53.158;6.766;2023-04-26T15:16:46;17.80;50.60
51815;DHT22;37874;53.158;6.766;2023-04-26T15:19:12;17.90;50.60
51815;DHT22;37874;53.158;6.766;2023-04-26T15:21:38;17.90;50.60
51815;DHT22;37874;53.158;6.766;2023-04-26T15:24:04;18.00;50.70
51815;DHT22;37874;53.158;6.766;2023-04-26T15:26:29;17.90;50.70
51815;DHT22;37874;53.158;6.766;2023-04-26T15:28:55;17.90;50.50
51815;DHT22;37874;53.158;6.766;2023-04-26T15:31:21;18.00;50.40
51815;DHT22;37874;53.158;6.766;2023-04-26T15:33:48;18.10;50.60
51815;DHT22;37874;53.158;6.766;2023-04-26T15:36:14;18.00;50.40
51815;DHT22;37874;53.158;6.766;2023-04-26T15:38:41;18.10;50.20
51815;DHT22;37874;53.158;6.766;2023-04-26T15:41:09;18.20;50.20
51815;DHT22;37874;53.158;6.766;2023-04-26T15:43:35;18.20;49.90
51815;DHT22;37874;53.158;6.766;2023-04-26T15:46:00;18.30;49.70
51815;DHT22;37874;53.158;6.766;2023-04-26T15:48:26;18.40;49.50
51815;DHT22;37874;53.158;6.766;2023-04-26T15:50:52;18.40;49.60
51815;DHT22;37874;53.158;6.766;2023-04-26T15:53:21;18.40;49.50
51815;DHT22;37874;53.158;6.766;2023-04-26T15:55:48;18.50;49.40
51815;DHT22;37874;53.158;6.766;2023-04-26T15:58:14;18.40;49.50
51815;DHT22;37874;53.158;6.766;2023-04-26T16:00:40;18.50;49.50
51815;DHT22;37874;53.158;6.766;2023-04-26T16:03:06;18.60;49.50
51815;DHT22;37874;53.158;6.766;2023-04-26T16:05:32;18.50;49.50
51815;DHT22;37874;53.158;6.766;2023-04-26T16:07:57;18.40;49.30
51815;DHT22;37874;53.158;6.766;2023-04-26T16:10:24;18.50;49.40
51815;DHT22;37874;53.158;6.766;2023-04-26T16:12:50;18.50;49.40
51815;DHT22;37874;53.158;6.766;2023-04-26T16:15:16;18.50;49.60
51815;DHT22;37874;53.158;6.766;2023-04-26T16:17:41;18.50;49.50
51815;DHT22;37874;53.158;6.766;2023-04-26T16:20:07;18.40;49.50
51815;DHT22;37874;53.158;6.766;2023-04-26T16:22:35;18.40;49.60
51815;DHT22;37874;53.158;6.766;2023-04-26T16:25:01;18.40;49.70
51815;DHT22;37874;53.158;6.766;2023-04-26T16:27:28;18.40;49.80
51815;DHT22;37874;53.158;6.766;2023-04-26T16:29:54;18.50;50.00
51815;DHT22;37874;53.158;6.766;2023-04-26T16:32:20;18.60;49.80
51815;DHT22;37874;53.158;6.766;2023-04-26T16:34:46;18.70;49.60
51815;DHT22;37874;53.158;6.766;2023-04-26T16:37:11;18.80;49.60
51815;DHT22;37874;53.158;6.766;2023-04-26T16:39:37;18.80;49.40
51815;DHT22;37874;53.158;6.766;2023-04-26T16:42:03;18.90;49.30
51815;DHT22;37874;53.158;6.766;2023-04-26T16:44:29;18.90;49.20
51815;DHT22;37874;53.158;6.766;2023-04-26T16:46:55;18.90;49.00
51815;DHT22;37874;53.158;6.766;2023-04-26T16:49:21;18.90;49.00
51815;DHT22;37874;53.158;6.766;2023-04-26T16:51:46;18.90;48.90
51815;DHT22;37874;53.158;6.766;2023-04-26T16:54:18;18.70;48.90
51815;DHT22;37874;53.158;6.766;2023-04-26T16:56:43;18.80;49.00
51815;DHT22;37874;53.158;6.766;2023-04-26T16:59:09;18.80;49.10
51815;DHT22;37874;53.158;6.766;2023-04-26T17:01:35;18.70;49.00
51815;DHT22;37874;53.158;6.766;2023-04-26T17:04:00;18.80;49.30
51815;DHT22;37874;53.158;6.766;2023-04-26T17:06:26;18.70;49.10
51815;DHT22;37874;53.158;6.766;2023-04-26T17:08:52;18.70;49.20
51815;DHT22;37874;53.158;6.766;2023-04-26T17:11:17;18.70;49.10
51815;DHT22;37874;53.158;6.766;2023-04-26T17:13:43;18.80;49.20
51815;DHT22;37874;53.158;6.766;2023-04-26T17:16:09;18.80;49.10
51815;DHT22;37874;53.158;6.766;2023-04-26T17:18:35;18.90;49.00
51815;DHT22;37874;53.158;6.766;2023-04-26T17:21:02;18.90;48.90
51815;DHT22;37874;53.158;6.766;2023-04-26T17:23:28;18.90;49.00
51815;DHT22;37874;53.158;6.766;2023-04-26T17:25:54;18.90;48.80
51815;DHT22;37874;53.158;6.766;2023-04-26T17:28:20;18.90;48.80
51815;DHT22;37874;53.158;6.766;2023-04-26T17:30:46;18.90;49.00
51815;DHT22;37874;53.158;6.766;2023-04-26T17:33:11;18.80;49.10
51815;DHT22;37874;53.158;6.766;2023-04-26T17:35:37;18.90;49.00
51815;DHT22;37874;53.158;6.766;2023-04-26T17:38:02;18.80;49.20
51815;DHT22;37874;53.158;6.766;2023-04-26T17:40:28;18.80;49.20
51815;DHT22;37874;53.158;6.766;2023-04-26T17:42:54;18.70;49.00
51815;DHT22;37874;53.158;6.766;2023-04-26T17:45:19;18.70;49.30
51815;DHT22;37874;53.158;6.766;2023-04-26T17:47:45;18.70;49.20